Time;durP1;ratioP1;P1;durP2;ratioP2;P2;SDS_P1;SDS_P2;PMS_P1;PMS_P2;Temp;Humidity;BMP_temperature;BMP_pressure;BME280_temperature;BME280_humidity;BME280_pressure;Samples;Min_cycle;Max_cycle;Signal;HPM_P1;HPM_P2
2023/08/15 00:00:37;;;;;;;4.97;4.57;;;;;;;;;;5050829;28;20178;-77
2023/08/15 00:03:03;;;;;;;9.43;5.47;;;;;;;;;;5060659;28;20178;-77
2023/08/15 00:05:28;;;;;;;5.35;4.60;;;;;;;;;;5048338;28;20178;-77
2023/08/15 00:07:53;;;;;;;4.38;4.03;;;;;;;;;;5044378;28;20183;-77
2023/08/15 00:10:19;;;;;;;9.05;4.70;;;;;;;;;;5049550;28;20234;-77
2023/08/15 00:12:44;;;;;;;4.47;4.07;;;;;;;;;;5048737;28;20180;-77
2023/08/15 00:15:10;;;;;;;6.30;4.45;;;;;;;;;;5063801;28;20174;-77
2023/08/15 00:17:35;;;;;;;4.97;4.47;;;;;;;;;;5047623;28;20190;-77
2023/08/15 00:20:00;;;;;;;5.82;5.32;;;;;;;;;;5045894;28;20181;-77
2023/08/15 00:22:26;;;;;;;6.70;4.72;;;;;;;;;;5041314;28;20220;-77
2023/08/15 00:24:51;;;;;;;7.32;4.28;;;;;;;;;;5049178;28;20180;-77
2023/08/15 00:27:16;;;;;;;7.47;5.15;;;;;;;;;;5062840;28;20209;-77
2023/08/15 00:29:41;;;;;;;5.15;4.30;;;;;;;;;;5043515;28;20214;-77
2023/08/15 00:32:06;;;;;;;6.07;4.40;;;;;;;;;;5051797;28;20178;-77
2023/08/15 00:34:31;;;;;;;5.38;4.57;;;;;;;;;;5051301;28;20186;-77
2023/08/15 00:36:57;;;;;;;6.63;4.30;;;;;;;;;;5047423;28;20225;-77
2023/08/15 00:39:22;;;;;;;5.07;4.55;;;;;;;;;;5052174;28;20181;-77
2023/08/15 00:41:47;;;;;;;5.55;4.50;;;;;;;;;;5054134;28;20224;-77
2023/08/15 00:44:12;;;;;;;5.40;4.90;;;;;;;;;;5052718;28;20213;-77
2023/08/15 00:46:38;;;;;;;5.93;4.90;;;;;;;;;;5054380;28;20192;-77
2023/08/15 00:49:03;;;;;;;4.88;4.38;;;;;;;;;;5047436;28;20179;-77
2023/08/15 00:51:28;;;;;;;5.20;4.53;;;;;;;;;;5050971;28;20243;-77
2023/08/15 00:53:54;;;;;;;4.28;3.88;;;;;;;;;;5048047;28;20192;-77
2023/08/15 00:56:21;;;;;;;5.27;4.50;;;;;;;;;;5047644;28;20174;-78
2023/08/15 00:58:46;;;;;;;4.97;4.47;;;;;;;;;;5065192;28;20224;-77
2023/08/15 01:01:14;;;;;;;4.82;4.35;;;;;;;;;;5051606;28;20238;-77
2023/08/15 01:03:39;;;;;;;5.25;4.28;;;;;;;;;;5051041;28;20178;-77
2023/08/15 01:06:04;;;;;;;4.82;4.38;;;;;;;;;;5049684;28;20178;-77
2023/08/15 01:08:30;;;;;;;4.85;4.45;;;;;;;;;;5051909;28;20178;-77
2023/08/15 01:10:56;;;;;;;4.82;4.38;;;;;;;;;;5066408;28;20189;-77
2023/08/15 01:13:34;;;;;;;5.75;4.07;;;;;;;;;;5056717;28;20181;-77
2023/08/15 01:16:01;;;;;;;4.82;4.43;;;;;;;;;;5065339;28;20181;-77
2023/08/15 01:18:31;;;;;;;5.33;4.57;;;;;;;;;;5052607;28;20182;-77
2023/08/15 01:20:57;;;;;;;4.50;4.10;;;;;;;;;;5050448;28;20199;-77
2023/08/15 01:23:37;;;;;;;6.30;4.37;;;;;;;;;;5049005;28;20182;-77
2023/08/15 01:26:02;;;;;;;6.30;4.40;;;;;;;;;;5051058;28;20190;-77
2023/08/15 01:28:27;;;;;;;5.40;4.47;;;;;;;;;;5052140;28;20186;-77
2023/08/15 01:30:58;;;;;;;5.55;4.68;;;;;;;;;;5051727;28;20174;-77
2023/08/15 01:33:34;;;;;;;7.50;4.73;;;;;;;;;;5048517;28;20185;-77
2023/08/15 01:36:03;;;;;;;5.07;4.68;;;;;;;;;;5048785;28;20237;-77
2023/08/15 01:38:34;;;;;;;4.40;4.10;;;;;;;;;;5051526;28;20205;-77
2023/08/15 01:41:00;;;;;;;5.03;4.50;;;;;;;;;;5049817;28;20170;-77
2023/08/15 01:43:26;;;;;;;4.32;4.03;;;;;;;;;;5051328;28;20175;-77
2023/08/15 01:45:51;;;;;;;5.50;4.40;;;;;;;;;;5050677;28;20184;-77
2023/08/15 01:48:17;;;;;;;7.03;4.78;;;;;;;;;;5051526;28;20181;-78
2023/08/15 01:50:42;;;;;;;5.03;4.53;;;;;;;;;;5052640;28;20202;-78
2023/08/15 01:53:07;;;;;;;7.20;4.80;;;;;;;;;;5048179;28;20193;-77
2023/08/15 01:55:32;;;;;;;5.03;4.63;;;;;;;;;;5050543;28;20193;-78
2023/08/15 01:57:57;;;;;;;5.47;4.70;;;;;;;;;;5048383;28;20198;-77
2023/08/15 02:00:22;;;;;;;6.30;5.70;;;;;;;;;;5052352;28;20235;-77
2023/08/15 02:02:48;;;;;;;5.07;4.53;;;;;;;;;;5048188;28;20185;-77
2023/08/15 02:05:13;;;;;;;5.43;4.93;;;;;;;;;;5049479;28;20280;-77
2023/08/15 02:07:39;;;;;;;5.13;4.63;;;;;;;;;;5051096;28;20182;-77
2023/08/15 02:10:04;;;;;;;4.75;4.35;;;;;;;;;;5050411;28;20181;-77
2023/08/15 02:12:29;;;;;;;4.90;4.50;;;;;;;;;;5049114;28;20195;-77
2023/08/15 02:14:54;;;;;;;5.47;4.97;;;;;;;;;;5046500;28;20185;-77
2023/08/15 02:17:20;;;;;;;10.67;5.73;;;;;;;;;;5051621;28;20208;-77
2023/08/15 02:19:45;;;;;;;5.30;4.80;;;;;;;;;;5049520;28;20178;-77
2023/08/15 02:22:10;;;;;;;5.00;4.57;;;;;;;;;;5049277;28;20192;-77
2023/08/15 02:24:35;;;;;;;5.33;4.83;;;;;;;;;;5050300;28;20178;-77
2023/08/15 02:27:00;;;;;;;6.97;5.57;;;;;;;;;;5051288;28;20188;-77
2023/08/15 02:29:25;;;;;;;5.20;4.57;;;;;;;;;;5053058;28;20170;-77
2023/08/15 02:31:51;;;;;;;5.20;4.70;;;;;;;;;;5051506;28;20177;-77
2023/08/15 02:34:17;;;;;;;5.35;4.95;;;;;;;;;;5050701;28;20209;-78
2023/08/15 02:36:43;;;;;;;6.13;5.53;;;;;;;;;;5046371;28;20248;-77
2023/08/15 02:39:08;;;;;;;6.80;5.23;;;;;;;;;;5045449;28;20189;-77
2023/08/15 02:41:33;;;;;;;6.95;4.68;;;;;;;;;;5049694;28;20256;-77
2023/08/15 02:44:00;;;;;;;6.20;4.70;;;;;;;;;;5047260;28;20178;-77
2023/08/15 02:46:26;;;;;;;5.27;4.67;;;;;;;;;;5050094;28;20174;-77
2023/08/15 02:48:52;;;;;;;4.68;4.28;;;;;;;;;;5062769;28;20186;-77
2023/08/15 02:51:17;;;;;;;5.67;5.07;;;;;;;;;;5044084;28;20290;-77
2023/08/15 02:53:42;;;;;;;6.95;5.20;;;;;;;;;;5047809;28;20276;-77
2023/08/15 02:56:07;;;;;;;5.07;4.57;;;;;;;;;;5049473;28;20181;-77
2023/08/15 02:58:32;;;;;;;7.45;4.32;;;;;;;;;;5048881;28;20206;-77
2023/08/15 03:00:57;;;;;;;6.43;4.83;;;;;;;;;;5051346;28;20269;-77
2023/08/15 03:03:23;;;;;;;7.45;4.68;;;;;;;;;;5048296;28;20174;-77
2023/08/15 03:05:48;;;;;;;6.40;4.87;;;;;;;;;;5045937;28;20228;-77
2023/08/15 03:08:13;;;;;;;6.38;4.50;;;;;;;;;;5044857;28;20185;-77
2023/08/15 03:10:39;;;;;;;7.07;5.03;;;;;;;;;;5048418;28;20197;-77
2023/08/15 03:13:04;;;;;;;8.70;4.63;;;;;;;;;;5047232;28;20193;-77
2023/08/15 03:15:30;;;;;;;6.00;4.50;;;;;;;;;;5062884;28;20267;-77
2023/08/15 03:17:57;;;;;;;5.43;4.90;;;;;;;;;;5061303;28;20208;-77
2023/08/15 03:20:22;;;;;;;10.93;4.83;;;;;;;;;;5050747;28;20217;-78
2023/08/15 03:22:47;;;;;;;6.97;4.60;;;;;;;;;;5049471;28;20213;-77
2023/08/15 03:25:12;;;;;;;6.20;4.40;;;;;;;;;;5047378;28;20181;-77
2023/08/15 03:27:38;;;;;;;6.10;3.83;;;;;;;;;;5050293;28;20281;-77
2023/08/15 03:30:03;;;;;;;6.57;3.97;;;;;;;;;;5046252;28;20185;-77
2023/08/15 03:32:28;;;;;;;4.83;4.13;;;;;;;;;;5045468;28;20179;-77
2023/08/15 03:34:53;;;;;;;7.97;4.43;;;;;;;;;;5048141;28;20177;-77
2023/08/15 03:37:19;;;;;;;5.70;3.90;;;;;;;;;;5042698;28;20195;-77
2023/08/15 03:39:44;;;;;;;5.75;4.20;;;;;;;;;;5044271;28;20182;-77
2023/08/15 03:42:09;;;;;;;9.70;4.55;;;;;;;;;;5050186;28;20201;-78
2023/08/15 03:44:34;;;;;;;4.68;3.85;;;;;;;;;;5049338;28;20276;-77
2023/08/15 03:46:59;;;;;;;5.15;4.22;;;;;;;;;;5062086;28;20178;-77
2023/08/15 03:49:25;;;;;;;8.50;4.50;;;;;;;;;;5048857;28;20178;-77
2023/08/15 03:51:50;;;;;;;6.65;4.30;;;;;;;;;;5051094;28;20206;-77
2023/08/15 03:54:15;;;;;;;6.53;4.60;;;;;;;;;;5048737;28;20178;-77
2023/08/15 03:56:41;;;;;;;5.20;4.70;;;;;;;;;;5045015;28;20231;-77
2023/08/15 03:59:06;;;;;;;7.97;4.80;;;;;;;;;;5044621;28;20182;-77
2023/08/15 04:01:31;;;;;;;6.32;4.57;;;;;;;;;;5049146;28;20171;-77
2023/08/15 04:03:56;;;;;;;4.80;4.20;;;;;;;;;;5049722;28;20239;-77
2023/08/15 04:06:22;;;;;;;6.18;4.70;;;;;;;;;;5052484;28;20252;-77
2023/08/15 04:08:47;;;;;;;9.13;5.33;;;;;;;;;;5050969;28;20181;-77
2023/08/15 04:11:12;;;;;;;8.35;5.00;;;;;;;;;;5050996;28;20180;-77
2023/08/15 04:13:37;;;;;;;6.27;4.63;;;;;;;;;;5050333;28;20188;-77
2023/08/15 04:16:02;;;;;;;7.47;4.47;;;;;;;;;;5052366;28;20248;-76
2023/08/15 04:18:28;;;;;;;8.03;4.70;;;;;;;;;;5051709;28;20205;-77
2023/08/15 04:20:53;;;;;;;15.57;6.23;;;;;;;;;;5052759;28;20176;-77
2023/08/15 04:23:18;;;;;;;5.40;5.00;;;;;;;;;;5051597;28;20181;-77
2023/08/15 04:25:43;;;;;;;5.77;5.13;;;;;;;;;;5051072;28;20190;-77
2023/08/15 04:28:09;;;;;;;9.57;5.33;;;;;;;;;;5050342;28;20233;-77
2023/08/15 04:30:34;;;;;;;8.15;5.05;;;;;;;;;;5067352;28;20212;-77
2023/08/15 04:32:59;;;;;;;7.30;5.53;;;;;;;;;;5052384;28;20179;-77
2023/08/15 04:35:25;;;;;;;6.17;5.20;;;;;;;;;;5053507;28;20241;-77
2023/08/15 04:37:50;;;;;;;8.37;5.80;;;;;;;;;;5053365;28;20216;-77
2023/08/15 04:40:20;;;;;;;7.47;5.33;;;;;;;;;;5048739;28;20197;-77
2023/08/15 04:42:45;;;;;;;10.40;6.03;;;;;;;;;;5052162;28;20180;-77
2023/08/15 04:45:10;;;;;;;12.33;6.27;;;;;;;;;;5051454;28;20195;-77
2023/08/15 04:47:35;;;;;;;8.90;5.90;;;;;;;;;;5052013;28;20192;-77
2023/08/15 04:50:00;;;;;;;6.70;6.10;;;;;;;;;;5048358;28;20189;-77
2023/08/15 04:52:26;;;;;;;9.93;7.03;;;;;;;;;;5051094;28;20182;-77
2023/08/15 04:54:51;;;;;;;8.77;6.27;;;;;;;;;;5045125;28;20183;-77
2023/08/15 04:57:16;;;;;;;7.70;6.90;;;;;;;;;;5053303;28;20226;-77
2023/08/15 04:59:41;;;;;;;7.80;6.40;;;;;;;;;;5045357;28;20183;-77
2023/08/15 05:02:07;;;;;;;12.03;6.97;;;;;;;;;;5051671;28;20184;-77
2023/08/15 05:04:32;;;;;;;11.03;7.37;;;;;;;;;;5052879;28;20181;-77
2023/08/15 05:07:00;;;;;;;8.30;7.50;;;;;;;;;;5048816;28;20178;-77
2023/08/15 05:09:25;;;;;;;28.23;9.87;;;;;;;;;;5052307;28;20263;-77
2023/08/15 05:11:50;;;;;;;6.73;6.03;;;;;;;;;;5052392;28;20182;-77
2023/08/15 05:14:16;;;;;;;7.47;6.60;;;;;;;;;;5052840;28;20190;-77
2023/08/15 05:16:41;;;;;;;7.50;6.80;;;;;;;;;;5050533;28;20228;-77
2023/08/15 05:19:06;;;;;;;8.57;7.67;;;;;;;;;;5046571;28;20179;-77
2023/08/15 05:21:32;;;;;;;6.38;5.63;;;;;;;;;;5048487;28;20175;-77
2023/08/15 05:23:57;;;;;;;6.82;5.55;;;;;;;;;;5051578;28;20178;-77
2023/08/15 05:26:22;;;;;;;8.75;6.28;;;;;;;;;;5047254;28;20178;-77
2023/08/15 05:28:47;;;;;;;7.65;6.35;;;;;;;;;;5052337;28;20316;-77
2023/08/15 05:31:13;;;;;;;9.32;6.90;;;;;;;;;;5049462;28;20231;-77
2023/08/15 05:33:39;;;;;;;6.60;6.00;;;;;;;;;;5049808;28;20181;-77
2023/08/15 05:36:04;;;;;;;18.90;7.68;;;;;;;;;;5051039;28;20233;-77
2023/08/15 05:38:29;;;;;;;8.57;6.83;;;;;;;;;;5045441;28;20201;-77
2023/08/15 05:40:54;;;;;;;11.77;6.38;;;;;;;;;;5048369;28;20175;-77
2023/08/15 05:43:19;;;;;;;6.95;6.32;;;;;;;;;;5051334;28;20181;-77
2023/08/15 05:45:48;;;;;;;8.35;6.40;;;;;;;;;;5049245;28;20178;-77
2023/08/15 05:48:14;;;;;;;8.90;6.30;;;;;;;;;;5046449;28;20175;-77
2023/08/15 05:50:39;;;;;;;11.00;6.73;;;;;;;;;;5044825;28;20216;-77
2023/08/15 05:53:04;;;;;;;6.85;6.25;;;;;;;;;;5048675;28;20229;-77
2023/08/15 05:55:29;;;;;;;9.98;7.43;;;;;;;;;;5063252;28;20198;-77
2023/08/15 05:57:54;;;;;;;7.07;6.38;;;;;;;;;;5050270;28;20198;-77
2023/08/15 06:00:20;;;;;;;10.02;9.13;;;;;;;;;;5046374;28;20183;-77
2023/08/15 06:02:45;;;;;;;6.95;6.25;;;;;;;;;;5050273;28;20174;-77
2023/08/15 06:05:10;;;;;;;8.25;6.72;;;;;;;;;;5044582;28;20174;-77
2023/08/15 06:07:35;;;;;;;31.52;9.25;;;;;;;;;;5050244;28;20179;-77
2023/08/15 06:10:00;;;;;;;9.23;6.60;;;;;;;;;;5050043;28;20225;-77
2023/08/15 06:12:26;;;;;;;8.50;5.55;;;;;;;;;;5059625;28;20186;-77
2023/08/15 06:14:51;;;;;;;8.13;5.10;;;;;;;;;;5045091;28;20196;-77
2023/08/15 06:17:17;;;;;;;7.30;6.07;;;;;;;;;;5050516;28;20260;-77
2023/08/15 06:19:42;;;;;;;7.88;6.28;;;;;;;;;;5048607;28;20178;-77
2023/08/15 06:22:07;;;;;;;6.40;5.80;;;;;;;;;;5049267;28;20185;-77
2023/08/15 06:24:33;;;;;;;7.88;5.78;;;;;;;;;;5049690;28;20236;-77
2023/08/15 06:26:58;;;;;;;7.00;4.65;;;;;;;;;;5050477;28;20205;-77
2023/08/15 06:29:25;;;;;;;21.05;6.95;;;;;;;;;;5049110;28;20170;-77
2023/08/15 06:31:50;;;;;;;6.07;5.47;;;;;;;;;;5052454;28;20177;-77
2023/08/15 06:34:15;;;;;;;8.15;5.30;;;;;;;;;;5049122;28;20183;-77
2023/08/15 06:36:41;;;;;;;8.25;5.32;;;;;;;;;;5049473;28;20284;-77
2023/08/15 06:39:06;;;;;;;8.77;5.55;;;;;;;;;;5046002;28;20182;-77
2023/08/15 06:41:31;;;;;;;6.57;4.65;;;;;;;;;;5050537;28;20175;-77
2023/08/15 06:43:56;;;;;;;5.75;4.82;;;;;;;;;;5044302;28;20182;-77
2023/08/15 06:46:21;;;;;;;8.85;5.07;;;;;;;;;;5048321;28;20174;-77
2023/08/15 06:48:47;;;;;;;4.82;4.43;;;;;;;;;;5050148;28;20265;-77
2023/08/15 06:51:12;;;;;;;4.60;4.15;;;;;;;;;;5043914;28;20236;-78
2023/08/15 06:53:40;;;;;;;5.22;4.82;;;;;;;;;;5045911;28;20190;-78
2023/08/15 06:56:05;;;;;;;7.30;5.20;;;;;;;;;;5049150;28;20261;-77
2023/08/15 06:58:30;;;;;;;5.18;4.68;;;;;;;;;;5044964;28;20286;-77
2023/08/15 07:00:55;;;;;;;7.20;6.35;;;;;;;;;;5049220;28;20171;-77
2023/08/15 07:03:20;;;;;;;5.80;5.05;;;;;;;;;;5048727;28;20227;-77
2023/08/15 07:05:46;;;;;;;7.03;6.50;;;;;;;;;;5049298;28;20186;-77
2023/08/15 07:08:13;;;;;;;7.15;6.32;;;;;;;;;;5046831;28;20435;-78
2023/08/15 07:10:38;;;;;;;7.88;5.57;;;;;;;;;;5048811;28;20181;-78
2023/08/15 07:13:03;;;;;;;9.43;5.82;;;;;;;;;;5050751;28;20191;-77
2023/08/15 07:15:29;;;;;;;8.63;5.57;;;;;;;;;;5040908;28;20189;-77
2023/08/15 07:17:55;;;;;;;7.20;5.38;;;;;;;;;;5044404;28;20202;-78
2023/08/15 07:20:20;;;;;;;7.22;5.60;;;;;;;;;;5047106;28;20187;-77
2023/08/15 07:22:45;;;;;;;8.43;5.70;;;;;;;;;;5058804;28;20194;-77
2023/08/15 07:25:11;;;;;;;7.70;6.18;;;;;;;;;;5046744;28;20225;-77
2023/08/15 07:27:36;;;;;;;6.88;6.05;;;;;;;;;;5050749;28;20181;-77
2023/08/15 07:30:01;;;;;;;8.00;6.75;;;;;;;;;;5041691;28;20178;-77
2023/08/15 07:32:28;;;;;;;6.60;5.97;;;;;;;;;;5056628;28;20217;-77
2023/08/15 07:34:53;;;;;;;5.93;5.35;;;;;;;;;;5060122;28;20178;-77
2023/08/15 07:37:18;;;;;;;10.67;6.90;;;;;;;;;;5038466;28;20212;-77
2023/08/15 07:39:43;;;;;;;6.05;5.45;;;;;;;;;;5046100;28;20489;-77
2023/08/15 07:42:09;;;;;;;9.02;6.85;;;;;;;;;;5043964;28;20182;-77
2023/08/15 07:44:34;;;;;;;8.38;5.38;;;;;;;;;;5057299;28;20171;-82
2023/08/15 07:46:59;;;;;;;8.10;5.70;;;;;;;;;;5043649;28;20220;-78
2023/08/15 07:49:24;;;;;;;7.22;6.18;;;;;;;;;;5058382;28;20192;-78
2023/08/15 07:51:49;;;;;;;6.75;6.13;;;;;;;;;;5047510;28;20205;-77
2023/08/15 07:54:15;;;;;;;8.30;6.35;;;;;;;;;;5044688;28;20178;-77
2023/08/15 07:56:40;;;;;;;11.82;5.68;;;;;;;;;;5046939;28;20190;-77
2023/08/15 07:59:05;;;;;;;6.93;6.32;;;;;;;;;;5053160;28;20170;-78
2023/08/15 08:01:31;;;;;;;7.45;6.53;;;;;;;;;;5047660;28;20171;-77
2023/08/15 08:03:56;;;;;;;7.20;6.47;;;;;;;;;;5040513;28;20179;-77
2023/08/15 08:06:21;;;;;;;7.05;5.95;;;;;;;;;;5059329;28;20264;-77
2023/08/15 08:08:47;;;;;;;8.23;6.30;;;;;;;;;;5045333;28;20178;-77
2023/08/15 08:11:12;;;;;;;7.85;7.00;;;;;;;;;;5046211;28;20174;-78
2023/08/15 08:13:37;;;;;;;14.43;7.35;;;;;;;;;;5044836;28;20189;-78
2023/08/15 08:16:02;;;;;;;37.60;10.18;;;;;;;;;;5047766;28;20178;-77
2023/08/15 08:18:28;;;;;;;7.88;7.18;;;;;;;;;;5041032;28;20225;-77
2023/08/15 08:20:53;;;;;;;7.25;6.55;;;;;;;;;;5040612;28;20174;-77
2023/08/15 08:23:18;;;;;;;7.22;6.63;;;;;;;;;;5046015;28;20201;-78
2023/08/15 08:25:45;;;;;;;7.30;6.60;;;;;;;;;;5046844;28;20179;-77
2023/08/15 08:28:10;;;;;;;7.53;6.93;;;;;;;;;;5047036;28;20183;-77
2023/08/15 08:30:36;;;;;;;7.60;6.63;;;;;;;;;;5048972;28;20185;-77
2023/08/15 08:33:02;;;;;;;7.38;5.97;;;;;;;;;;5047233;28;20270;-77
2023/08/15 08:35:27;;;;;;;6.78;6.18;;;;;;;;;;5047095;28;20309;-77
2023/08/15 08:37:52;;;;;;;10.30;6.88;;;;;;;;;;5048893;28;20202;-77
2023/08/15 08:40:18;;;;;;;7.68;6.93;;;;;;;;;;5044448;28;20193;-77
2023/08/15 08:42:44;;;;;;;10.90;7.10;;;;;;;;;;5046601;28;20170;-77
2023/08/15 08:45:12;;;;;;;8.45;6.72;;;;;;;;;;5046467;28;20182;-76
2023/08/15 08:47:41;;;;;;;8.20;7.35;;;;;;;;;;5032932;28;20187;-77
2023/08/15 08:50:09;;;;;;;8.18;6.32;;;;;;;;;;5044677;28;20194;-77
2023/08/15 08:52:34;;;;;;;7.15;5.72;;;;;;;;;;5044997;28;20225;-78
2023/08/15 08:55:00;;;;;;;8.95;6.93;;;;;;;;;;5037537;28;20210;-77
2023/08/15 08:57:27;;;;;;;8.52;6.80;;;;;;;;;;5044752;28;20264;-77
2023/08/15 08:59:54;;;;;;;7.10;6.40;;;;;;;;;;5046694;28;20951;-77
2023/08/15 09:02:21;;;;;;;6.85;6.15;;;;;;;;;;5050613;28;20178;-77
2023/08/15 09:04:47;;;;;;;11.27;5.95;;;;;;;;;;5053197;28;20243;-77
2023/08/15 09:07:12;;;;;;;11.98;5.25;;;;;;;;;;5052137;28;20181;-77
2023/08/15 09:09:38;;;;;;;7.93;5.00;;;;;;;;;;5051822;28;20174;-77
2023/08/15 09:12:03;;;;;;;4.68;4.05;;;;;;;;;;5051260;28;20190;-77
2023/08/15 09:14:28;;;;;;;6.70;4.65;;;;;;;;;;5049402;28;20178;-77
2023/08/15 09:16:53;;;;;;;6.03;4.25;;;;;;;;;;5064645;28;20198;-77
2023/08/15 09:19:19;;;;;;;5.40;4.10;;;;;;;;;;5051936;28;20234;-77
2023/08/15 09:21:44;;;;;;;4.90;3.83;;;;;;;;;;5052410;28;20174;-78
2023/08/15 09:24:09;;;;;;;8.30;4.43;;;;;;;;;;5046387;28;20215;-77
2023/08/15 09:26:35;;;;;;;10.95;4.00;;;;;;;;;;5066903;28;20209;-77
2023/08/15 09:29:02;;;;;;;4.97;3.60;;;;;;;;;;5051572;28;20170;-77
2023/08/15 09:31:27;;;;;;;7.78;3.97;;;;;;;;;;5051893;28;20205;-77
2023/08/15 09:33:52;;;;;;;5.10;3.25;;;;;;;;;;5051179;28;20202;-77
2023/08/15 09:36:18;;;;;;;3.78;3.33;;;;;;;;;;5049929;28;20218;-77
2023/08/15 09:38:43;;;;;;;6.15;3.90;;;;;;;;;;5049765;28;20213;-77
2023/08/15 09:41:12;;;;;;;8.82;3.58;;;;;;;;;;5051255;28;20187;-77
2023/08/15 09:43:48;;;;;;;5.57;3.75;;;;;;;;;;5051291;28;20242;-77
2023/08/15 09:46:13;;;;;;;7.25;4.18;;;;;;;;;;5048680;28;20264;-77
2023/08/15 09:48:39;;;;;;;6.03;4.20;;;;;;;;;;5048996;28;20273;-77
2023/08/15 09:51:04;;;;;;;4.72;3.45;;;;;;;;;;5051906;28;20229;-77
2023/08/15 09:53:30;;;;;;;6.68;3.92;;;;;;;;;;5047146;28;20199;-77
2023/08/15 09:55:55;;;;;;;3.95;3.63;;;;;;;;;;5050214;28;20242;-78
2023/08/15 09:58:22;;;;;;;8.13;3.63;;;;;;;;;;5051025;28;20205;-78
2023/08/15 10:00:51;;;;;;;6.65;3.63;;;;;;;;;;5051216;28;20182;-77
2023/08/15 10:03:22;;;;;;;5.00;3.58;;;;;;;;;;5066842;28;20166;-77
2023/08/15 10:05:53;;;;;;;13.73;4.32;;;;;;;;;;5047416;28;20178;-78
2023/08/15 10:08:19;;;;;;;3.78;3.47;;;;;;;;;;5063287;28;20246;-77
2023/08/15 10:10:45;;;;;;;5.28;2.97;;;;;;;;;;5048085;28;20341;-77
2023/08/15 10:13:11;;;;;;;6.53;3.67;;;;;;;;;;5049029;28;20190;-77
2023/08/15 10:15:37;;;;;;;5.40;3.63;;;;;;;;;;5043903;28;20178;-77
2023/08/15 10:18:02;;;;;;;6.30;3.08;;;;;;;;;;5049071;28;20236;-77
2023/08/15 10:20:33;;;;;;;5.72;3.70;;;;;;;;;;5047468;28;20217;-77
2023/08/15 10:22:58;;;;;;;7.03;3.20;;;;;;;;;;5060280;28;20182;-77
2023/08/15 10:25:23;;;;;;;6.68;3.60;;;;;;;;;;5060576;28;20194;-78
2023/08/15 10:27:50;;;;;;;4.88;2.72;;;;;;;;;;5049526;28;20218;-77
2023/08/15 10:30:33;;;;;;;3.70;3.35;;;;;;;;;;5047827;28;20438;-77
2023/08/15 10:33:18;;;;;;;3.50;3.20;;;;;;;;;;5044604;28;20193;-77
2023/08/15 10:35:50;;;;;;;3.90;3.25;;;;;;;;;;5048712;28;20241;-78
2023/08/15 10:38:17;;;;;;;13.18;4.53;;;;;;;;;;5048365;28;20205;-77
2023/08/15 10:40:42;;;;;;;6.07;3.42;;;;;;;;;;5049806;28;20174;-77
2023/08/15 10:43:10;;;;;;;5.93;3.33;;;;;;;;;;5066425;28;20173;-77
2023/08/15 10:45:36;;;;;;;4.82;3.72;;;;;;;;;;5048034;28;20178;-77
2023/08/15 10:48:02;;;;;;;9.95;3.90;;;;;;;;;;5049644;28;20178;-78
2023/08/15 10:50:27;;;;;;;5.93;3.95;;;;;;;;;;5046556;28;20280;-77
2023/08/15 10:53:05;;;;;;;4.20;3.78;;;;;;;;;;5050082;28;20201;-77
2023/08/15 10:55:32;;;;;;;7.03;3.42;;;;;;;;;;5046932;28;20178;-77
2023/08/15 10:57:57;;;;;;;5.00;3.60;;;;;;;;;;5046591;28;20258;-77
2023/08/15 11:00:23;;;;;;;4.38;3.15;;;;;;;;;;5045267;28;20183;-77
2023/08/15 11:02:48;;;;;;;7.57;2.92;;;;;;;;;;5041160;28;20175;-77
2023/08/15 11:05:14;;;;;;;5.10;3.00;;;;;;;;;;5063257;28;20178;-77
2023/08/15 11:07:41;;;;;;;4.00;2.90;;;;;;;;;;5048851;28;20181;-77
2023/08/15 11:10:07;;;;;;;6.32;3.20;;;;;;;;;;5050195;28;20181;-77
2023/08/15 11:12:32;;;;;;;10.05;3.33;;;;;;;;;;5047510;28;20178;-77
2023/08/15 11:14:58;;;;;;;3.47;3.00;;;;;;;;;;5041907;28;20190;-77
2023/08/15 11:17:23;;;;;;;4.30;2.72;;;;;;;;;;5063408;28;20549;-77
2023/08/15 11:19:48;;;;;;;5.28;3.55;;;;;;;;;;5047756;28;20178;-77
2023/08/15 11:22:13;;;;;;;6.63;3.40;;;;;;;;;;5049923;28;20170;-77
2023/08/15 11:24:38;;;;;;;6.55;3.33;;;;;;;;;;5044053;28;20182;-78
2023/08/15 11:27:04;;;;;;;5.40;3.58;;;;;;;;;;5046583;28;20186;-77
2023/08/15 11:29:29;;;;;;;6.25;3.72;;;;;;;;;;5045384;28;20178;-77
2023/08/15 11:31:58;;;;;;;7.22;3.58;;;;;;;;;;5046206;28;20271;-77
2023/08/15 11:34:23;;;;;;;8.48;4.15;;;;;;;;;;5048526;28;20180;-77
2023/08/15 11:36:49;;;;;;;4.82;3.50;;;;;;;;;;5045764;28;20230;-77
2023/08/15 11:39:14;;;;;;;11.05;4.10;;;;;;;;;;5056878;28;20177;-77
2023/08/15 11:41:39;;;;;;;4.28;3.50;;;;;;;;;;5044770;28;20182;-77
2023/08/15 11:44:05;;;;;;;6.60;4.07;;;;;;;;;;5048683;28;20174;-77
2023/08/15 11:46:34;;;;;;;6.07;3.75;;;;;;;;;;5050175;28;20175;-77
2023/08/15 11:48:59;;;;;;;4.32;3.92;;;;;;;;;;5046632;28;20185;-77
2023/08/15 11:51:24;;;;;;;4.57;3.57;;;;;;;;;;5040529;28;20197;-77
2023/08/15 11:53:53;;;;;;;9.75;4.00;;;;;;;;;;5059202;28;20466;-77
2023/08/15 11:56:18;;;;;;;4.18;3.67;;;;;;;;;;5048103;28;20174;-76
2023/08/15 11:58:44;;;;;;;6.47;3.75;;;;;;;;;;5048995;28;20220;-78
2023/08/15 12:01:11;;;;;;;4.18;3.75;;;;;;;;;;5051340;28;20185;-77
2023/08/15 12:03:37;;;;;;;4.38;3.97;;;;;;;;;;5050491;28;20177;-77
2023/08/15 12:06:06;;;;;;;4.55;3.47;;;;;;;;;;5049627;28;20174;-77
2023/08/15 12:08:31;;;;;;;4.75;3.67;;;;;;;;;;5050658;28;20186;-77
2023/08/15 12:10:58;;;;;;;4.85;3.88;;;;;;;;;;5048247;28;20189;-77
2023/08/15 12:13:33;;;;;;;6.95;3.90;;;;;;;;;;5046794;28;20335;-77
2023/08/15 12:15:59;;;;;;;3.67;3.38;;;;;;;;;;5041525;28;20188;-77
2023/08/15 12:18:24;;;;;;;5.13;3.75;;;;;;;;;;5045912;28;20198;-77
2023/08/15 12:20:49;;;;;;;12.80;4.37;;;;;;;;;;5045193;28;20190;-78
2023/08/15 12:23:14;;;;;;;6.43;3.73;;;;;;;;;;5044973;28;20415;-77
2023/08/15 12:25:39;;;;;;;5.20;3.77;;;;;;;;;;5044390;28;20701;-78
2023/08/15 12:28:05;;;;;;;5.87;3.43;;;;;;;;;;5049845;28;20490;-77
2023/08/15 12:30:30;;;;;;;5.40;3.97;;;;;;;;;;5066303;28;20423;-77
2023/08/15 12:32:55;;;;;;;3.78;3.47;;;;;;;;;;5045099;28;20185;-77
2023/08/15 12:35:21;;;;;;;4.23;3.87;;;;;;;;;;5047960;28;20320;-77
2023/08/15 12:37:46;;;;;;;7.57;4.63;;;;;;;;;;5049957;28;20454;-77
2023/08/15 12:40:11;;;;;;;4.77;4.13;;;;;;;;;;5051683;28;20182;-77
2023/08/15 12:42:36;;;;;;;6.00;4.35;;;;;;;;;;5052066;28;20411;-77
2023/08/15 12:45:02;;;;;;;7.00;4.88;;;;;;;;;;5050744;28;20235;-77
2023/08/15 12:47:29;;;;;;;4.70;4.15;;;;;;;;;;5043363;28;20201;-77
2023/08/15 12:49:54;;;;;;;4.28;3.97;;;;;;;;;;5049196;28;20194;-77
2023/08/15 12:52:19;;;;;;;8.07;4.90;;;;;;;;;;5053009;28;20179;-77
2023/08/15 12:54:44;;;;;;;4.60;4.20;;;;;;;;;;5043589;28;20436;-77
2023/08/15 12:57:10;;;;;;;7.43;4.38;;;;;;;;;;5047298;28;20753;-77
2023/08/15 12:59:35;;;;;;;6.70;4.40;;;;;;;;;;5046697;28;20247;-77
2023/08/15 13:02:00;;;;;;;4.82;4.40;;;;;;;;;;5049899;28;20305;-77
2023/08/15 13:04:25;;;;;;;7.00;4.68;;;;;;;;;;5052880;28;20204;-77
2023/08/15 13:06:51;;;;;;;9.57;5.32;;;;;;;;;;5051599;28;20185;-77
2023/08/15 13:09:16;;;;;;;5.05;4.53;;;;;;;;;;5047770;28;20216;-77
2023/08/15 13:11:41;;;;;;;6.28;4.43;;;;;;;;;;5048144;28;20269;-76
2023/08/15 13:14:07;;;;;;;5.18;4.18;;;;;;;;;;5048209;28;20194;-77
2023/08/15 13:16:32;;;;;;;6.80;4.20;;;;;;;;;;5051329;28;20182;-77
2023/08/15 13:18:58;;;;;;;5.15;4.47;;;;;;;;;;5051079;28;20268;-77
2023/08/15 13:21:24;;;;;;;7.55;4.57;;;;;;;;;;5045894;28;20170;-77
2023/08/15 13:23:50;;;;;;;4.90;4.28;;;;;;;;;;5047976;28;20184;-77
2023/08/15 13:26:15;;;;;;;4.60;4.20;;;;;;;;;;5063691;28;20261;-77
2023/08/15 13:28:40;;;;;;;5.15;4.18;;;;;;;;;;5046604;28;20438;-77
2023/08/15 13:34:31;;;;;;;5.05;4.18;;;;;;;;;;5045797;28;20189;-77
2023/08/15 13:36:56;;;;;;;4.72;4.18;;;;;;;;;;5044926;28;20217;-76
2023/08/15 13:39:21;;;;;;;6.15;4.00;;;;;;;;;;5051423;28;20174;-77
2023/08/15 13:41:46;;;;;;;4.82;4.40;;;;;;;;;;5053317;28;20178;-77
2023/08/15 13:44:12;;;;;;;4.75;4.05;;;;;;;;;;5053165;28;20224;-77
2023/08/15 13:46:37;;;;;;;8.13;4.70;;;;;;;;;;5048976;28;20257;-77
2023/08/15 13:49:02;;;;;;;7.63;5.07;;;;;;;;;;5049811;28;20198;-77
2023/08/15 13:51:30;;;;;;;4.43;4.03;;;;;;;;;;5045801;28;20212;-77
2023/08/15 13:53:55;;;;;;;5.90;4.30;;;;;;;;;;5046811;28;20197;-77
2023/08/15 13:56:20;;;;;;;5.10;4.27;;;;;;;;;;5048348;28;20186;-77
2023/08/15 13:58:45;;;;;;;5.68;4.30;;;;;;;;;;5047123;28;20553;-76
2023/08/15 14:01:11;;;;;;;4.80;4.32;;;;;;;;;;5051184;28;20206;-77
2023/08/15 14:03:36;;;;;;;5.57;4.22;;;;;;;;;;5050264;28;20175;-77
2023/08/15 14:06:03;;;;;;;5.68;4.38;;;;;;;;;;5058740;28;20197;-77
2023/08/15 14:08:29;;;;;;;4.53;4.07;;;;;;;;;;5044195;28;20186;-77
2023/08/15 14:10:54;;;;;;;5.25;3.90;;;;;;;;;;5050796;28;20182;-77
2023/08/15 14:13:19;;;;;;;6.13;4.40;;;;;;;;;;5051875;28;20178;-77
2023/08/15 14:15:45;;;;;;;5.88;3.97;;;;;;;;;;5045462;28;20435;-77
2023/08/15 14:18:10;;;;;;;4.25;3.85;;;;;;;;;;5045920;28;20197;-77
2023/08/15 14:20:36;;;;;;;4.90;4.50;;;;;;;;;;5051853;28;20175;-77
2023/08/15 14:23:01;;;;;;;8.15;4.10;;;;;;;;;;5052132;28;20250;-77
2023/08/15 14:25:27;;;;;;;4.32;3.92;;;;;;;;;;5044274;28;20193;-77
2023/08/15 14:27:52;;;;;;;4.33;4.03;;;;;;;;;;5043875;28;20178;-77
2023/08/15 14:30:18;;;;;;;5.15;4.65;;;;;;;;;;5040031;28;20470;-77
2023/08/15 14:32:43;;;;;;;6.40;4.30;;;;;;;;;;5043009;28;20186;-77
2023/08/15 14:35:08;;;;;;;6.53;4.60;;;;;;;;;;5042263;28;20206;-77
2023/08/15 14:37:33;;;;;;;4.18;3.85;;;;;;;;;;5042314;28;20543;-77